createdAt,value
2022-09-12T00:00:44.921Z,99847.88
2022-09-12T00:03:06.844Z,99861.03
2022-09-12T00:05:09.212Z,99845.09
2022-09-12T00:07:11.124Z,99846.66
2022-09-12T00:09:14.734Z,99834.97
2022-09-12T00:11:17.176Z,99849.63
2022-09-12T00:13:19.129Z,99861.13
2022-09-12T00:15:21.097Z,99871.75
2022-09-12T00:17:23.376Z,99850.19
2022-09-12T00:19:27.047Z,99850.34
2022-09-12T00:21:29.961Z,99848.28
2022-09-12T00:23:33.332Z,99845.72
2022-09-12T00:25:35.355Z,99855.94
2022-09-12T00:27:37.249Z,99877.00
2022-09-12T00:29:39.504Z,99860.81
2022-09-12T00:31:41.494Z,99881.97
2022-09-12T00:33:44.273Z,99863.72
2022-09-12T00:35:52.288Z,99852.53
2022-09-12T00:37:54.128Z,99863.72
2022-09-12T00:39:58.775Z,99869.69
2022-09-12T00:42:01.180Z,99888.94
2022-09-12T00:44:23.007Z,99889.78
2022-09-12T00:46:48.437Z,99890.88
2022-09-12T00:49:06.453Z,99888.84
2022-09-12T00:51:09.136Z,99909.91
2022-09-12T00:53:11.167Z,99881.28
2022-09-12T00:55:36.930Z,99891.03
2022-09-12T00:57:50.559Z,99873.72
2022-09-12T01:00:22.929Z,99872.75
2022-09-12T01:02:25.554Z,99884.44
2022-09-12T01:04:29.070Z,99882.47
2022-09-12T01:06:37.711Z,99871.41
2022-09-12T01:08:41.812Z,99876.44
2022-09-12T01:10:44.320Z,99882.53
2022-09-12T01:12:47.132Z,99892.84
2022-09-12T01:14:49.415Z,99879.56
2022-09-12T01:16:51.789Z,99898.56
2022-09-12T01:19:08.759Z,99881.25
2022-09-12T01:21:45.462Z,99895.50
2022-09-12T01:24:21.938Z,99898.78
2022-09-12T01:27:00.192Z,99893.31
2022-09-12T01:30:14.496Z,99877.34
2022-09-12T01:32:38.226Z,99892.81
2022-09-12T01:34:55.710Z,99865.28
2022-09-12T01:37:21.795Z,99894.16
2022-09-12T01:39:50.626Z,99899.53
2022-09-12T01:42:07.777Z,99898.06
2022-09-12T01:44:34.456Z,99868.47
2022-09-12T01:46:36.784Z,99894.66
2022-09-12T01:48:45.926Z,99876.72
2022-09-12T01:51:01.992Z,99898.31
2022-09-12T01:53:14.915Z,99868.34
2022-09-12T01:55:38.679Z,99876.72
2022-09-12T01:57:52.590Z,99895.16
2022-09-12T02:00:00.916Z,99862.75
2022-09-12T02:02:29.160Z,99899.81
2022-09-12T02:04:58.135Z,99909.81
2022-09-12T02:07:13.299Z,99903.22
2022-09-12T02:09:24.584Z,99904.44
2022-09-12T02:11:26.632Z,99897.63
2022-09-12T02:13:38.289Z,99875.56
2022-09-12T02:15:54.332Z,99881.75
2022-09-12T02:18:00.843Z,99864.72
2022-09-12T02:20:31.336Z,99862.53
2022-09-12T02:22:41.672Z,99886.63
2022-09-12T02:24:48.956Z,99877.13
2022-09-12T02:27:26.357Z,99892.59
2022-09-12T02:29:28.505Z,99883.47
2022-09-12T02:31:47.952Z,99904.66
2022-09-12T02:34:15.708Z,99903.22
2022-09-12T02:36:37.934Z,99899.06
2022-09-12T02:38:49.163Z,99891.91
2022-09-12T02:40:51.616Z,99879.22
2022-09-12T02:42:53.582Z,99904.09
2022-09-12T02:44:57.262Z,99890.81
2022-09-12T02:47:08.978Z,99884.38
2022-09-12T02:49:14.760Z,99909.34
2022-09-12T02:51:22.928Z,99897.88
2022-09-12T02:53:26.947Z,99869.84
2022-09-12T02:55:29.306Z,99905.56
2022-09-12T02:57:32.415Z,99883.03
2022-09-12T02:59:34.761Z,99894.09
2022-09-12T03:02:04.063Z,99913.94
2022-09-12T03:04:37.828Z,99910.91
2022-09-12T03:07:18.790Z,99913.00
2022-09-12T03:10:07.097Z,99899.56
2022-09-12T03:12:46.789Z,99914.81
2022-09-12T03:15:07.728Z,99912.16
2022-09-12T03:17:29.337Z,99915.94
2022-09-12T03:19:56.266Z,99914.22
2022-09-12T03:22:35.441Z,99876.44
2022-09-12T03:24:49.334Z,99906.16
2022-09-12T03:26:58.461Z,99912.25
2022-09-12T03:29:04.034Z,99893.47
2022-09-12T03:31:15.213Z,99883.25
2022-09-12T03:33:25.530Z,99916.41
2022-09-12T03:35:29.724Z,99879.22
2022-09-12T03:37:32.103Z,99897.16
2022-09-12T03:39:34.001Z,99911.88
2022-09-12T03:41:35.947Z,99904.06
2022-09-12T03:43:38.188Z,99890.41
2022-09-12T03:45:40.264Z,99901.38
2022-09-12T03:47:42.368Z,99890.53
2022-09-12T03:49:44.699Z,99890.81
2022-09-12T03:51:46.586Z,99908.69
2022-09-12T03:53:48.610Z,99894.44
2022-09-12T03:55:50.903Z,99890.66
2022-09-12T03:57:54.583Z,99894.31
2022-09-12T03:59:56.626Z,99894.22
2022-09-12T04:01:59.170Z,99894.22
2022-09-12T04:04:01.073Z,99909.03
2022-09-12T04:06:03.124Z,99890.16
2022-09-12T04:08:06.424Z,99917.22
2022-09-12T04:10:10.025Z,99892.47
2022-09-12T04:12:13.431Z,99908.06
2022-09-12T04:14:17.976Z,99892.59
2022-09-12T04:16:21.500Z,99904.06
2022-09-12T04:18:27.387Z,99893.25
2022-09-12T04:20:31.095Z,99900.56
2022-09-12T04:22:34.258Z,99915.91
2022-09-12T04:24:39.670Z,99901.66
2022-09-12T04:26:44.024Z,99891.19
2022-09-12T04:28:47.632Z,99897.75
2022-09-12T04:30:56.890Z,99895.44
2022-09-12T04:33:04.946Z,99930.00
2022-09-12T04:35:13.160Z,99929.16
2022-09-12T04:37:21.873Z,99897.56
2022-09-12T04:39:25.976Z,99894.13
2022-09-12T04:41:40.046Z,99895.41
2022-09-12T04:43:47.706Z,99920.91
2022-09-12T04:45:53.923Z,99918.31
2022-09-12T04:48:02.249Z,99908.63
2022-09-12T04:50:15.212Z,99919.63
2022-09-12T04:54:44.581Z,99910.38
2022-09-12T04:56:57.595Z,99900.56
2022-09-12T04:59:33.774Z,99895.00
2022-09-12T05:02:40.571Z,99931.50
2022-09-12T07:02:10.894Z,99973.34
2022-09-12T07:04:13.157Z,99962.34
2022-09-12T07:06:17.578Z,99944.94
2022-09-12T07:08:38.370Z,99981.31
2022-09-12T07:10:47.605Z,99952.13
2022-09-12T07:17:33.551Z,99956.03
2022-09-12T07:19:39.378Z,99955.41
2022-09-12T07:21:46.076Z,99951.38
2022-09-12T07:23:54.642Z,99955.94
2022-09-12T07:26:04.938Z,99952.91
2022-09-12T07:28:11.750Z,99950.06
2022-09-12T07:30:15.170Z,99948.34
2022-09-12T07:32:19.752Z,99956.19
2022-09-12T07:34:30.293Z,99954.94
2022-09-12T07:36:40.607Z,99945.06
2022-09-12T07:41:20.793Z,99974.03
2022-09-12T07:43:31.385Z,99960.44
2022-09-12T07:45:34.091Z,99958.50
2022-09-12T07:48:09.749Z,99956.56
2022-09-12T12:43:36.598Z,99950.09
2022-09-12T12:45:39.825Z,99958.75
2022-09-12T12:48:06.253Z,99944.88
2022-09-12T12:50:18.382Z,99978.13
2022-09-12T12:52:22.142Z,99952.34
2022-09-12T12:54:40.266Z,99969.47
2022-09-12T12:56:47.192Z,99959.31
2022-09-12T12:59:07.960Z,99941.69
2022-09-12T13:01:27.742Z,99946.91
2022-09-12T20:45:47.048Z,99885.00
2022-09-12T20:47:49.485Z,99878.06
2022-09-12T20:49:51.694Z,99887.44
2022-09-12T20:51:53.665Z,99872.47
2022-09-12T20:54:01.402Z,99853.47
2022-09-12T20:56:04.152Z,99852.03
2022-09-12T20:58:06.097Z,99871.88
2022-09-12T21:00:10.789Z,99848.00
2022-09-12T21:02:15.261Z,99856.88
2022-09-12T21:04:18.531Z,99865.66
2022-09-12T21:06:26.028Z,99840.38
2022-09-12T21:08:31.513Z,99868.16
2022-09-12T21:10:45.343Z,99837.94
2022-09-12T21:12:50.041Z,99849.16
2022-09-12T21:14:58.065Z,99844.03
2022-09-12T21:17:02.716Z,99839.16
2022-09-12T21:19:06.365Z,99843.06
2022-09-12T21:21:11.261Z,99859.03
2022-09-12T21:23:13.342Z,99851.13
2022-09-12T21:25:15.520Z,99857.69
2022-09-12T21:27:17.497Z,99869.47
2022-09-12T21:29:19.440Z,99872.78
2022-09-12T21:31:21.973Z,99857.31
2022-09-12T21:33:24.475Z,99840.72
2022-09-12T21:35:26.504Z,99843.31
2022-09-12T21:37:29.079Z,99851.34
2022-09-12T21:39:31.152Z,99866.59
2022-09-12T21:41:33.341Z,99851.22
2022-09-12T21:43:36.643Z,99837.97
2022-09-12T21:45:39.183Z,99837.34
2022-09-12T21:47:41.611Z,99842.34
2022-09-12T21:49:44.097Z,99846.84
2022-09-12T21:51:46.412Z,99852.59
2022-09-12T21:53:49.169Z,99866.72
2022-09-12T21:55:52.644Z,99841.47
2022-09-12T21:57:56.555Z,99839.88
2022-09-12T21:59:58.963Z,99870.78
2022-09-12T22:02:01.839Z,99836.38
2022-09-12T22:04:03.859Z,99854.19
2022-09-12T22:06:06.425Z,99872.00
2022-09-12T22:08:10.460Z,99855.38
2022-09-12T22:10:12.458Z,99832.97
2022-09-12T22:12:14.414Z,99868.09
2022-09-12T22:14:16.933Z,99855.84
2022-09-12T22:16:19.238Z,99871.03
2022-09-12T22:18:21.307Z,99844.22
2022-09-12T22:20:23.908Z,99819.81
2022-09-12T22:22:26.271Z,99857.31
2022-09-12T22:24:28.473Z,99828.56
2022-09-12T22:26:31.783Z,99827.97
2022-09-12T22:28:33.906Z,99831.41
2022-09-12T22:30:35.946Z,99862.03
2022-09-12T22:32:38.286Z,99821.41
2022-09-12T22:34:40.462Z,99857.41
2022-09-12T22:36:42.876Z,99827.25
2022-09-12T22:38:45.627Z,99826.47
2022-09-12T22:40:48.032Z,99817.91
2022-09-12T22:42:52.938Z,99842.78
2022-09-12T22:44:55.868Z,99828.09
2022-09-12T22:46:58.074Z,99835.53
2022-09-12T22:49:00.629Z,99837.19
2022-09-12T22:51:02.934Z,99819.31
2022-09-12T22:53:05.117Z,99811.03
2022-09-12T22:55:08.491Z,99819.06
2022-09-12T22:57:10.859Z,99815.44
2022-09-12T22:59:13.388Z,99814.72
2022-09-12T23:01:15.682Z,99812.97
2022-09-12T23:03:20.807Z,99813.91
2022-09-12T23:05:31.602Z,99822.53
2022-09-12T23:07:37.989Z,99846.94
2022-09-12T23:09:46.566Z,99849.25
2022-09-12T23:11:50.084Z,99820.00
2022-09-12T23:13:54.263Z,99811.03
2022-09-12T23:16:06.560Z,99840.38
2022-09-12T23:18:14.883Z,99808.78
2022-09-12T23:20:24.688Z,99820.47
2022-09-12T23:22:28.033Z,99839.53
2022-09-12T23:24:32.923Z,99800.78
2022-09-12T23:26:39.481Z,99792.03
2022-09-12T23:28:49.796Z,99790.09
2022-09-12T23:30:57.831Z,99791.16
2022-09-12T23:35:25.715Z,99793.81
2022-09-12T23:37:29.616Z,99821.25
2022-09-12T23:39:32.632Z,99811.41
2022-09-12T23:41:34.834Z,99821.00
2022-09-12T23:43:37.500Z,99776.72
2022-09-12T23:45:40.286Z,99802.53
2022-09-12T23:47:42.676Z,99773.81
2022-09-12T23:49:45.317Z,99780.75
2022-09-12T23:51:48.537Z,99796.66
2022-09-12T23:53:51.104Z,99776.09
2022-09-12T23:55:54.537Z,99774.72
2022-09-12T23:57:57.514Z,99804.84
